sensor_id;sensor_type;location;lat;lon;timestamp;pressure;altitude;pressure_sealevel;temperature;humidity
6694;BME280;3384;42.628;23.380;2023-01-29T00:01:04;94216.63;;;3.42;100.00
6694;BME280;3384;42.628;23.380;2023-01-29T00:03:32;94238.56;;;3.94;100.00
6694;BME280;3384;42.628;23.380;2023-01-29T00:05:59;94225.88;;;3.39;100.00
6694;BME280;3384;42.628;23.380;2023-01-29T00:08:33;94231.81;;;3.15;100.00
6694;BME280;3384;42.628;23.380;2023-01-29T00:11:00;94229.16;;;3.61;100.00
6694;BME280;3384;42.628;23.380;2023-01-29T00:13:28;94248.16;;;3.02;100.00
6694;BME280;3384;42.628;23.380;2023-01-29T00:15:55;94242.22;;;3.78;100.00
6694;BME280;3384;42.628;23.380;2023-01-29T00:18:22;94241.63;;;3.61;100.00
6694;BME280;3384;42.628;23.380;2023-01-29T00:20:49;94254.47;;;3.37;100.00
6694;BME280;3384;42.628;23.380;2023-01-29T00:23:16;94261.63;;;3.37;100.00
6694;BME280;3384;42.628;23.380;2023-01-29T00:25:44;94259.53;;;3.44;100.00
6694;BME280;3384;42.628;23.380;2023-01-29T00:28:11;94256.31;;;3.93;100.00
6694;BME280;3384;42.628;23.380;2023-01-29T00:30:39;94272.31;;;3.57;100.00
6694;BME280;3384;42.628;23.380;2023-01-29T00:33:06;94258.03;;;3.58;100.00
6694;BME280;3384;42.628;23.380;2023-01-29T00:35:33;94268.81;;;3.98;100.00
6694;BME280;3384;42.628;23.380;2023-01-29T00:38:00;94264.38;;;3.57;100.00
6694;BME280;3384;42.628;23.380;2023-01-29T00:40:27;94271.09;;;3.69;100.00
6694;BME280;3384;42.628;23.380;2023-01-29T00:43:15;94262.41;;;3.37;100.00
6694;BME280;3384;42.628;23.380;2023-01-29T00:45:59;94288.00;;;3.63;100.00
6694;BME280;3384;42.628;23.380;2023-01-29T00:48:26;94257.84;;;3.74;100.00
6694;BME280;3384;42.628;23.380;2023-01-29T00:50:53;94264.00;;;3.95;100.00
6694;BME280;3384;42.628;23.380;2023-01-29T00:53:19;94263.44;;;3.83;100.00
6694;BME280;3384;42.628;23.380;2023-01-29T00:55:46;94267.81;;;3.52;100.00
6694;BME280;3384;42.628;23.380;2023-01-29T00:58:14;94265.56;;;3.34;100.00
6694;BME280;3384;42.628;23.380;2023-01-29T01:00:46;94262.81;;;3.61;100.00
6694;BME280;3384;42.628;23.380;2023-01-29T01:03:13;94271.72;;;3.91;100.00
6694;BME280;3384;42.628;23.380;2023-01-29T01:05:39;94286.19;;;3.74;100.00
6694;BME280;3384;42.628;23.380;2023-01-29T01:08:07;94266.00;;;3.63;100.00
6694;BME280;3384;42.628;23.380;2023-01-29T01:10:57;94261.63;;;3.93;100.00
6694;BME280;3384;42.628;23.380;2023-01-29T01:13:25;94260.81;;;3.88;100.00
6694;BME280;3384;42.628;23.380;2023-01-29T01:15:52;94253.50;;;4.10;100.00
6694;BME280;3384;42.628;23.380;2023-01-29T01:18:19;94259.69;;;3.74;100.00
6694;BME280;3384;42.628;23.380;2023-01-29T01:20:47;94248.94;;;4.00;100.00
6694;BME280;3384;42.628;23.380;2023-01-29T01:23:16;94253.97;;;3.92;100.00
6694;BME280;3384;42.628;23.380;2023-01-29T01:25:43;94250.03;;;3.53;100.00
6694;BME280;3384;42.628;23.380;2023-01-29T01:28:11;94260.56;;;3.43;100.00
6694;BME280;3384;42.628;23.380;2023-01-29T01:30:39;94252.59;;;3.89;100.00
6694;BME280;3384;42.628;23.380;2023-01-29T01:33:06;94247.97;;;3.60;100.00
6694;BME280;3384;42.628;23.380;2023-01-29T01:35:33;94246.16;;;4.52;100.00
6694;BME280;3384;42.628;23.380;2023-01-29T01:38:00;94257.28;;;2.89;100.00
6694;BME280;3384;42.628;23.380;2023-01-29T01:40:27;94254.44;;;3.32;100.00
6694;BME280;3384;42.628;23.380;2023-01-29T01:42:57;94241.59;;;2.19;100.00
6694;BME280;3384;42.628;23.380;2023-01-29T01:45:26;94249.56;;;1.98;100.00
6694;BME280;3384;42.628;23.380;2023-01-29T01:47:58;94257.13;;;2.37;100.00
6694;BME280;3384;42.628;23.380;2023-01-29T01:50:29;94242.56;;;2.08;100.00
6694;BME280;3384;42.628;23.380;2023-01-29T01:52:59;94253.41;;;2.38;100.00
6694;BME280;3384;42.628;23.380;2023-01-29T01:55:28;94248.28;;;2.85;100.00
6694;BME280;3384;42.628;23.380;2023-01-29T01:57:59;94255.88;;;2.18;100.00
6694;BME280;3384;42.628;23.380;2023-01-29T02:00:28;94271.50;;;2.46;100.00
6694;BME280;3384;42.628;23.380;2023-01-29T02:02:57;94268.41;;;2.28;100.00
6694;BME280;3384;42.628;23.380;2023-01-29T02:05:41;94259.41;;;2.29;100.00
6694;BME280;3384;42.628;23.380;2023-01-29T02:08:30;94266.94;;;2.42;100.00
6694;BME280;3384;42.628;23.380;2023-01-29T02:11:15;94263.72;;;3.40;100.00
6694;BME280;3384;42.628;23.380;2023-01-29T02:13:43;94265.13;;;3.99;100.00
6694;BME280;3384;42.628;23.380;2023-01-29T02:16:10;94262.03;;;3.65;100.00
6694;BME280;3384;42.628;23.380;2023-01-29T02:18:38;94274.00;;;3.73;100.00
6694;BME280;3384;42.628;23.380;2023-01-29T02:21:19;94263.59;;;3.61;100.00
6694;BME280;3384;42.628;23.380;2023-01-29T02:27:02;94272.56;;;4.07;100.00
6694;BME280;3384;42.628;23.380;2023-01-29T02:29:40;94289.31;;;3.61;100.00
6694;BME280;3384;42.628;23.380;2023-01-29T02:32:18;94277.47;;;3.73;100.00
6694;BME280;3384;42.628;23.380;2023-01-29T02:34:52;94281.16;;;3.72;100.00
6694;BME280;3384;42.628;23.380;2023-01-29T02:37:50;94276.84;;;3.56;100.00
6694;BME280;3384;42.628;23.380;2023-01-29T02:40:28;94270.53;;;3.67;100.00
6694;BME280;3384;42.628;23.380;2023-01-29T02:43:02;94285.81;;;3.55;100.00
6694;BME280;3384;42.628;23.380;2023-01-29T02:45:40;94282.75;;;3.73;100.00
6694;BME280;3384;42.628;23.380;2023-01-29T02:48:13;94286.28;;;3.94;100.00
6694;BME280;3384;42.628;23.380;2023-01-29T02:50:45;94282.75;;;3.27;100.00
6694;BME280;3384;42.628;23.380;2023-01-29T02:53:16;94276.72;;;3.36;100.00
6694;BME280;3384;42.628;23.380;2023-01-29T02:55:49;94290.91;;;3.67;100.00
6694;BME280;3384;42.628;23.380;2023-01-29T02:58:25;94282.13;;;3.56;100.00
6694;BME280;3384;42.628;23.380;2023-01-29T03:00:59;94288.19;;;3.47;100.00
6694;BME280;3384;42.628;23.380;2023-01-29T03:03:30;94281.84;;;3.16;100.00
6694;BME280;3384;42.628;23.380;2023-01-29T03:06:02;94281.91;;;3.63;100.00
6694;BME280;3384;42.628;23.380;2023-01-29T03:08:36;94285.81;;;3.14;100.00
6694;BME280;3384;42.628;23.380;2023-01-29T03:11:11;94276.25;;;3.08;100.00
6694;BME280;3384;42.628;23.380;2023-01-29T03:13:43;94282.97;;;2.88;100.00
6694;BME280;3384;42.628;23.380;2023-01-29T03:16:19;94292.41;;;2.79;100.00
6694;BME280;3384;42.628;23.380;2023-01-29T03:18:51;94283.66;;;2.47;100.00
6694;BME280;3384;42.628;23.380;2023-01-29T03:21:24;94276.72;;;3.41;100.00
6694;BME280;3384;42.628;23.380;2023-01-29T03:24:14;94291.97;;;2.61;100.00
6694;BME280;3384;42.628;23.380;2023-01-29T03:27:02;94293.03;;;3.23;100.00
6694;BME280;3384;42.628;23.380;2023-01-29T03:29:48;94303.13;;;2.36;100.00
6694;BME280;3384;42.628;23.380;2023-01-29T03:32:36;94294.53;;;2.51;100.00
6694;BME280;3384;42.628;23.380;2023-01-29T03:35:06;94290.50;;;2.43;100.00
6694;BME280;3384;42.628;23.380;2023-01-29T03:37:38;94299.28;;;2.22;100.00
6694;BME280;3384;42.628;23.380;2023-01-29T03:40:09;94288.84;;;2.37;100.00
6694;BME280;3384;42.628;23.380;2023-01-29T03:42:53;94288.13;;;2.20;100.00
6694;BME280;3384;42.628;23.380;2023-01-29T03:45:32;94297.50;;;2.06;100.00
6694;BME280;3384;42.628;23.380;2023-01-29T03:48:20;94295.81;;;2.00;100.00
6694;BME280;3384;42.628;23.380;2023-01-29T03:50:56;94300.63;;;1.82;100.00
6694;BME280;3384;42.628;23.380;2023-01-29T03:53:27;94305.66;;;2.05;100.00
6694;BME280;3384;42.628;23.380;2023-01-29T03:56:01;94290.13;;;1.87;100.00
6694;BME280;3384;42.628;23.380;2023-01-29T03:58:36;94311.06;;;1.93;100.00
6694;BME280;3384;42.628;23.380;2023-01-29T04:01:11;94303.00;;;2.26;100.00
6694;BME280;3384;42.628;23.380;2023-01-29T04:03:47;94293.34;;;2.63;100.00
6694;BME280;3384;42.628;23.380;2023-01-29T04:06:17;94292.84;;;3.35;100.00
6694;BME280;3384;42.628;23.380;2023-01-29T04:08:50;94312.16;;;2.40;100.00
6694;BME280;3384;42.628;23.380;2023-01-29T04:11:19;94302.03;;;2.32;100.00
6694;BME280;3384;42.628;23.380;2023-01-29T04:13:48;94292.28;;;1.68;100.00
6694;BME280;3384;42.628;23.380;2023-01-29T04:16:18;94284.31;;;2.11;100.00
6694;BME280;3384;42.628;23.380;2023-01-29T04:18:48;94299.03;;;2.50;100.00
6694;BME280;3384;42.628;23.380;2023-01-29T04:21:16;94303.97;;;1.94;100.00
6694;BME280;3384;42.628;23.380;2023-01-29T04:23:44;94306.00;;;2.08;100.00
6694;BME280;3384;42.628;23.380;2023-01-29T04:26:24;94291.94;;;2.29;100.00
6694;BME280;3384;42.628;23.380;2023-01-29T04:29:08;94309.41;;;2.30;100.00
6694;BME280;3384;42.628;23.380;2023-01-29T04:31:44;94296.06;;;2.20;100.00
6694;BME280;3384;42.628;23.380;2023-01-29T04:34:22;94301.31;;;2.15;100.00
6694;BME280;3384;42.628;23.380;2023-01-29T04:37:00;94301.94;;;3.44;100.00
6694;BME280;3384;42.628;23.380;2023-01-29T04:39:35;94311.53;;;3.55;100.00
6694;BME280;3384;42.628;23.380;2023-01-29T04:42:11;94316.72;;;2.76;100.00
6694;BME280;3384;42.628;23.380;2023-01-29T04:44:42;94304.56;;;3.44;100.00
6694;BME280;3384;42.628;23.380;2023-01-29T04:47:20;94314.72;;;3.57;100.00
6694;BME280;3384;42.628;23.380;2023-01-29T04:50:02;94315.41;;;3.84;100.00
6694;BME280;3384;42.628;23.380;2023-01-29T04:52:41;94317.56;;;3.45;100.00
6694;BME280;3384;42.628;23.380;2023-01-29T04:55:16;94324.03;;;3.23;100.00
6694;BME280;3384;42.628;23.380;2023-01-29T04:57:49;94327.69;;;3.58;100.00
6694;BME280;3384;42.628;23.380;2023-01-29T05:00:21;94327.91;;;3.47;100.00
6694;BME280;3384;42.628;23.380;2023-01-29T05:02:53;94322.06;;;3.08;100.00
6694;BME280;3384;42.628;23.380;2023-01-29T05:05:21;94326.25;;;3.77;100.00
6694;BME280;3384;42.628;23.380;2023-01-29T05:07:48;94320.63;;;3.74;100.00
6694;BME280;3384;42.628;23.380;2023-01-29T05:10:18;94323.22;;;3.22;100.00
6694;BME280;3384;42.628;23.380;2023-01-29T05:12:49;94326.81;;;3.84;100.00
6694;BME280;3384;42.628;23.380;2023-01-29T05:15:21;94332.06;;;3.74;100.00
6694;BME280;3384;42.628;23.380;2023-01-29T05:17:49;94329.00;;;3.51;100.00
6694;BME280;3384;42.628;23.380;2023-01-29T05:20:18;94334.16;;;3.36;100.00
6694;BME280;3384;42.628;23.380;2023-01-29T05:22:47;94334.22;;;3.82;100.00
6694;BME280;3384;42.628;23.380;2023-01-29T05:25:20;94335.19;;;4.23;100.00
6694;BME280;3384;42.628;23.380;2023-01-29T05:27:49;94345.63;;;3.88;100.00
6694;BME280;3384;42.628;23.380;2023-01-29T05:30:35;94347.38;;;4.19;100.00
6694;BME280;3384;42.628;23.380;2023-01-29T05:33:03;94348.38;;;3.61;100.00
6694;BME280;3384;42.628;23.380;2023-01-29T05:35:30;94356.22;;;3.83;100.00
6694;BME280;3384;42.628;23.380;2023-01-29T05:37:59;94354.41;;;3.93;100.00
6694;BME280;3384;42.628;23.380;2023-01-29T05:40:26;94350.97;;;3.51;100.00
6694;BME280;3384;42.628;23.380;2023-01-29T05:42:53;94355.97;;;3.84;100.00
6694;BME280;3384;42.628;23.380;2023-01-29T05:45:20;94359.88;;;3.77;100.00
6694;BME280;3384;42.628;23.380;2023-01-29T05:47:47;94353.25;;;3.74;100.00
6694;BME280;3384;42.628;23.380;2023-01-29T05:50:14;94350.91;;;3.83;100.00
6694;BME280;3384;42.628;23.380;2023-01-29T05:52:41;94356.22;;;3.83;100.00
6694;BME280;3384;42.628;23.380;2023-01-29T05:55:10;94357.78;;;3.79;100.00
6694;BME280;3384;42.628;23.380;2023-01-29T05:57:38;94356.91;;;3.63;100.00
6694;BME280;3384;42.628;23.380;2023-01-29T06:00:06;94370.97;;;3.32;100.00
6694;BME280;3384;42.628;23.380;2023-01-29T06:02:33;94365.81;;;2.89;100.00
6694;BME280;3384;42.628;23.380;2023-01-29T06:05:00;94360.50;;;3.16;100.00
6694;BME280;3384;42.628;23.380;2023-01-29T06:07:27;94364.47;;;3.50;100.00
6694;BME280;3384;42.628;23.380;2023-01-29T06:09:54;94365.38;;;3.29;100.00
6694;BME280;3384;42.628;23.380;2023-01-29T06:12:22;94369.34;;;4.04;100.00
6694;BME280;3384;42.628;23.380;2023-01-29T06:14:49;94373.88;;;3.67;100.00
6694;BME280;3384;42.628;23.380;2023-01-29T06:17:16;94385.56;;;4.18;100.00
6694;BME280;3384;42.628;23.380;2023-01-29T06:19:42;94381.25;;;2.97;100.00
6694;BME280;3384;42.628;23.380;2023-01-29T06:22:09;94387.88;;;3.63;100.00
6694;BME280;3384;42.628;23.380;2023-01-29T06:24:36;94390.53;;;3.63;100.00
6694;BME280;3384;42.628;23.380;2023-01-29T06:27:03;94397.28;;;3.44;100.00
6694;BME280;3384;42.628;23.380;2023-01-29T06:29:31;94392.94;;;3.33;100.00
6694;BME280;3384;42.628;23.380;2023-01-29T06:31:58;94400.56;;;3.56;100.00
6694;BME280;3384;42.628;23.380;2023-01-29T06:34:24;94399.53;;;2.99;100.00
6694;BME280;3384;42.628;23.380;2023-01-29T06:36:51;94416.91;;;3.48;100.00
6694;BME280;3384;42.628;23.380;2023-01-29T06:39:18;94400.56;;;1.68;100.00
6694;BME280;3384;42.628;23.380;2023-01-29T06:41:45;94403.66;;;1.82;100.00
6694;BME280;3384;42.628;23.380;2023-01-29T06:44:12;94398.69;;;1.85;100.00
6694;BME280;3384;42.628;23.380;2023-01-29T06:46:40;94406.03;;;2.21;100.00
6694;BME280;3384;42.628;23.380;2023-01-29T06:49:07;94396.81;;;2.02;100.00
6694;BME280;3384;42.628;23.380;2023-01-29T06:51:33;94405.88;;;2.28;100.00
6694;BME280;3384;42.628;23.380;2023-01-29T06:54:00;94411.16;;;2.49;100.00
6694;BME280;3384;42.628;23.380;2023-01-29T06:56:27;94411.53;;;2.36;100.00
6694;BME280;3384;42.628;23.380;2023-01-29T06:58:54;94424.34;;;2.06;100.00
6694;BME280;3384;42.628;23.380;2023-01-29T07:01:20;94411.03;;;1.80;100.00
6694;BME280;3384;42.628;23.380;2023-01-29T07:03:49;94408.06;;;1.93;100.00
6694;BME280;3384;42.628;23.380;2023-01-29T07:06:16;94417.66;;;2.20;100.00
6694;BME280;3384;42.628;23.380;2023-01-29T07:08:43;94408.44;;;2.01;100.00
6694;BME280;3384;42.628;23.380;2023-01-29T07:11:11;94408.56;;;2.11;100.00
6694;BME280;3384;42.628;23.380;2023-01-29T07:13:38;94421.34;;;2.84;100.00
6694;BME280;3384;42.628;23.380;2023-01-29T07:16:05;94420.56;;;2.40;100.00
6694;BME280;3384;42.628;23.380;2023-01-29T07:18:32;94436.09;;;2.53;100.00
6694;BME280;3384;42.628;23.380;2023-01-29T07:21:03;94413.66;;;2.82;100.00
6694;BME280;3384;42.628;23.380;2023-01-29T07:23:30;94419.88;;;2.71;100.00
6694;BME280;3384;42.628;23.380;2023-01-29T07:26:00;94436.50;;;2.67;100.00
6694;BME280;3384;42.628;23.380;2023-01-29T07:28:27;94433.97;;;2.55;100.00
6694;BME280;3384;42.628;23.380;2023-01-29T07:30:55;94448.44;;;2.26;100.00
6694;BME280;3384;42.628;23.380;2023-01-29T07:33:22;94435.25;;;1.72;100.00
6694;BME280;3384;42.628;23.380;2023-01-29T07:35:49;94435.44;;;2.89;100.00
6694;BME280;3384;42.628;23.380;2023-01-29T07:38:17;94432.72;;;1.98;100.00
6694;BME280;3384;42.628;23.380;2023-01-29T07:40:44;94430.72;;;2.70;100.00
6694;BME280;3384;42.628;23.380;2023-01-29T07:43:11;94442.59;;;2.67;100.00
6694;BME280;3384;42.628;23.380;2023-01-29T07:45:38;94446.75;;;2.85;100.00
6694;BME280;3384;42.628;23.380;2023-01-29T07:48:08;94446.47;;;2.81;100.00
6694;BME280;3384;42.628;23.380;2023-01-29T07:50:35;94440.31;;;2.76;100.00
6694;BME280;3384;42.628;23.380;2023-01-29T07:53:02;94452.03;;;2.85;100.00
6694;BME280;3384;42.628;23.380;2023-01-29T07:55:31;94446.22;;;2.61;100.00
6694;BME280;3384;42.628;23.380;2023-01-29T07:58:00;94441.78;;;2.24;100.00
6694;BME280;3384;42.628;23.380;2023-01-29T08:00:27;94446.19;;;2.56;100.00
6694;BME280;3384;42.628;23.380;2023-01-29T08:03:01;94454.34;;;2.55;100.00
6694;BME280;3384;42.628;23.380;2023-01-29T08:05:28;94465.97;;;2.54;100.00
6694;BME280;3384;42.628;23.380;2023-01-29T08:07:55;94456.66;;;2.08;100.00
6694;BME280;3384;42.628;23.380;2023-01-29T08:10:22;94462.13;;;2.23;100.00
6694;BME280;3384;42.628;23.380;2023-01-29T08:12:54;94456.47;;;2.58;100.00
6694;BME280;3384;42.628;23.380;2023-01-29T08:15:22;94454.94;;;2.19;100.00
6694;BME280;3384;42.628;23.380;2023-01-29T08:17:49;94451.13;;;2.31;100.00
6694;BME280;3384;42.628;23.380;2023-01-29T08:20:16;94462.03;;;3.58;100.00
6694;BME280;3384;42.628;23.380;2023-01-29T08:22:43;94455.94;;;2.77;100.00
6694;BME280;3384;42.628;23.380;2023-01-29T08:25:09;94465.59;;;2.45;100.00
6694;BME280;3384;42.628;23.380;2023-01-29T08:27:36;94462.25;;;2.76;100.00
6694;BME280;3384;42.628;23.380;2023-01-29T08:30:05;94465.78;;;2.39;100.00
6694;BME280;3384;42.628;23.380;2023-01-29T08:32:32;94459.44;;;2.18;100.00
6694;BME280;3384;42.628;23.380;2023-01-29T08:34:59;94464.78;;;2.23;100.00
6694;BME280;3384;42.628;23.380;2023-01-29T08:37:26;94463.00;;;2.72;100.00
6694;BME280;3384;42.628;23.380;2023-01-29T08:39:53;94483.28;;;2.23;100.00
6694;BME280;3384;42.628;23.380;2023-01-29T08:42:20;94460.09;;;1.92;100.00
6694;BME280;3384;42.628;23.380;2023-01-29T08:44:47;94459.38;;;2.35;100.00
6694;BME280;3384;42.628;23.380;2023-01-29T08:47:16;94477.81;;;2.30;100.00
6694;BME280;3384;42.628;23.380;2023-01-29T08:49:42;94494.28;;;2.53;100.00
6694;BME280;3384;42.628;23.380;2023-01-29T08:52:09;94491.66;;;2.37;100.00
6694;BME280;3384;42.628;23.380;2023-01-29T08:54:36;94482.25;;;2.46;100.00
6694;BME280;3384;42.628;23.380;2023-01-29T08:57:03;94486.53;;;2.68;100.00
6694;BME280;3384;42.628;23.380;2023-01-29T08:59:30;94510.81;;;2.65;100.00
6694;BME280;3384;42.628;23.380;2023-01-29T09:01:57;94511.56;;;2.82;100.00
6694;BME280;3384;42.628;23.380;2023-01-29T09:04:25;94513.53;;;2.70;100.00
6694;BME280;3384;42.628;23.380;2023-01-29T09:06:52;94505.03;;;2.68;100.00
6694;BME280;3384;42.628;23.380;2023-01-29T09:09:19;94515.69;;;2.73;100.00
6694;BME280;3384;42.628;23.380;2023-01-29T09:11:46;94507.22;;;2.93;100.00
6694;BME280;3384;42.628;23.380;2023-01-29T09:14:14;94503.25;;;2.96;100.00
6694;BME280;3384;42.628;23.380;2023-01-29T09:16:41;94509.28;;;2.69;100.00
6694;BME280;3384;42.628;23.380;2023-01-29T09:19:08;94514.88;;;2.94;100.00
6694;BME280;3384;42.628;23.380;2023-01-29T09:21:36;94515.88;;;2.29;100.00
6694;BME280;3384;42.628;23.380;2023-01-29T09:24:04;94505.00;;;2.47;100.00
6694;BME280;3384;42.628;23.380;2023-01-29T09:26:31;94497.06;;;2.47;100.00
6694;BME280;3384;42.628;23.380;2023-01-29T09:32:24;94490.28;;;2.94;100.00
6694;BME280;3384;42.628;23.380;2023-01-29T09:34:51;94492.78;;;3.06;100.00
6694;BME280;3384;42.628;23.380;2023-01-29T09:37:19;94506.69;;;2.96;100.00
6694;BME280;3384;42.628;23.380;2023-01-29T09:39:47;94495.38;;;3.01;100.00
6694;BME280;3384;42.628;23.380;2023-01-29T09:42:18;94495.78;;;3.14;100.00
6694;BME280;3384;42.628;23.380;2023-01-29T09:44:57;94494.03;;;3.25;100.00
6694;BME280;3384;42.628;23.380;2023-01-29T09:47:27;94507.66;;;3.12;100.00
6694;BME280;3384;42.628;23.380;2023-01-29T09:49:58;94482.91;;;2.74;100.00
6694;BME280;3384;42.628;23.380;2023-01-29T09:52:29;94484.00;;;3.00;100.00
6694;BME280;3384;42.628;23.380;2023-01-29T09:55:02;94486.19;;;3.08;100.00
6694;BME280;3384;42.628;23.380;2023-01-29T09:57:36;94490.03;;;3.22;100.00
6694;BME280;3384;42.628;23.380;2023-01-29T10:00:42;94487.97;;;3.03;100.00
6694;BME280;3384;42.628;23.380;2023-01-29T10:03:33;94483.22;;;3.05;100.00
6694;BME280;3384;42.628;23.380;2023-01-29T10:06:29;94485.00;;;3.21;100.00
6694;BME280;3384;42.628;23.380;2023-01-29T10:09:32;94485.09;;;3.31;100.00
6694;BME280;3384;42.628;23.380;2023-01-29T10:12:17;94479.25;;;3.29;100.00
6694;BME280;3384;42.628;23.380;2023-01-29T10:14:55;94481.88;;;3.29;100.00
6694;BME280;3384;42.628;23.380;2023-01-29T10:18:17;94468.75;;;3.39;100.00
6694;BME280;3384;42.628;23.380;2023-01-29T10:20:57;94467.25;;;3.48;100.00
6694;BME280;3384;42.628;23.380;2023-01-29T10:23:31;94457.66;;;3.15;100.00
6694;BME280;3384;42.628;23.380;2023-01-29T10:26:00;94472.38;;;3.06;100.00
6694;BME280;3384;42.628;23.380;2023-01-29T10:28:30;94466.91;;;3.39;100.00
6694;BME280;3384;42.628;23.380;2023-01-29T10:31:02;94459.81;;;3.18;100.00
6694;BME280;3384;42.628;23.380;2023-01-29T10:33:37;94465.72;;;3.25;100.00
6694;BME280;3384;42.628;23.380;2023-01-29T10:36:08;94467.81;;;3.23;100.00
6694;BME280;3384;42.628;23.380;2023-01-29T10:38:42;94453.59;;;3.08;100.00
6694;BME280;3384;42.628;23.380;2023-01-29T10:41:27;94462.56;;;3.60;100.00
6694;BME280;3384;42.628;23.380;2023-01-29T10:44:07;94455.59;;;2.69;100.00
6694;BME280;3384;42.628;23.380;2023-01-29T10:46:51;94449.34;;;3.02;100.00
6694;BME280;3384;42.628;23.380;2023-01-29T10:49:48;94447.78;;;3.64;100.00
6694;BME280;3384;42.628;23.380;2023-01-29T10:52:29;94458.31;;;3.54;100.00
6694;BME280;3384;42.628;23.380;2023-01-29T10:55:06;94449.09;;;2.81;100.00
6694;BME280;3384;42.628;23.380;2023-01-29T10:57:51;94453.84;;;3.33;100.00
6694;BME280;3384;42.628;23.380;2023-01-29T11:00:25;94451.25;;;3.38;100.00
6694;BME280;3384;42.628;23.380;2023-01-29T11:02:54;94448.81;;;3.05;100.00
6694;BME280;3384;42.628;23.380;2023-01-29T11:05:26;94453.13;;;3.11;100.00
6694;BME280;3384;42.628;23.380;2023-01-29T11:08:33;94442.59;;;2.67;100.00
6694;BME280;3384;42.628;23.380;2023-01-29T11:11:06;94444.78;;;3.24;100.00
6694;BME280;3384;42.628;23.380;2023-01-29T11:13:39;94434.81;;;2.82;100.00
6694;BME280;3384;42.628;23.380;2023-01-29T11:16:10;94438.81;;;3.12;100.00
6694;BME280;3384;42.628;23.380;2023-01-29T11:18:53;94442.72;;;3.31;100.00
6694;BME280;3384;42.628;23.380;2023-01-29T11:21:25;94445.66;;;3.08;100.00
6694;BME280;3384;42.628;23.380;2023-01-29T11:24:05;94429.34;;;3.16;100.00
6694;BME280;3384;42.628;23.380;2023-01-29T11:26:37;94435.59;;;2.56;100.00
6694;BME280;3384;42.628;23.380;2023-01-29T11:29:36;94425.66;;;2.90;100.00
6694;BME280;3384;42.628;23.380;2023-01-29T11:32:05;94415.41;;;2.99;100.00
6694;BME280;3384;42.628;23.380;2023-01-29T11:34:33;94414.97;;;3.07;100.00
6694;BME280;3384;42.628;23.380;2023-01-29T11:37:03;94434.97;;;2.97;100.00
6694;BME280;3384;42.628;23.380;2023-01-29T11:39:32;94418.13;;;3.35;100.00
6694;BME280;3384;42.628;23.380;2023-01-29T11:42:19;94404.97;;;2.87;100.00
6694;BME280;3384;42.628;23.380;2023-01-29T11:44:51;94402.50;;;2.80;100.00
6694;BME280;3384;42.628;23.380;2023-01-29T11:47:19;94420.09;;;3.18;100.00
6694;BME280;3384;42.628;23.380;2023-01-29T11:49:49;94405.34;;;3.01;100.00
6694;BME280;3384;42.628;23.380;2023-01-29T11:52:19;94394.56;;;3.34;100.00
6694;BME280;3384;42.628;23.380;2023-01-29T11:54:51;94406.75;;;3.08;100.00
6694;BME280;3384;42.628;23.380;2023-01-29T11:57:24;94404.34;;;3.02;100.00
6694;BME280;3384;42.628;23.380;2023-01-29T11:59:56;94396.72;;;3.42;100.00
6694;BME280;3384;42.628;23.380;2023-01-29T12:02:27;94423.47;;;3.40;100.00
6694;BME280;3384;42.628;23.380;2023-01-29T12:04:58;94409.16;;;2.83;100.00
6694;BME280;3384;42.628;23.380;2023-01-29T12:07:28;94405.72;;;2.82;100.00
6694;BME280;3384;42.628;23.380;2023-01-29T12:09:57;94403.19;;;3.56;100.00
6694;BME280;3384;42.628;23.380;2023-01-29T12:12:35;94402.97;;;3.62;100.00
6694;BME280;3384;42.628;23.380;2023-01-29T12:18:41;94392.78;;;3.13;100.00
6694;BME280;3384;42.628;23.380;2023-01-29T12:21:14;94388.28;;;3.45;100.00
6694;BME280;3384;42.628;23.380;2023-01-29T12:23:46;94393.69;;;3.60;100.00
6694;BME280;3384;42.628;23.380;2023-01-29T12:26:19;94400.34;;;3.31;100.00
6694;BME280;3384;42.628;23.380;2023-01-29T12:28:53;94403.69;;;3.48;100.00
6694;BME280;3384;42.628;23.380;2023-01-29T12:31:28;94404.28;;;3.60;100.00
6694;BME280;3384;42.628;23.380;2023-01-29T12:34:09;94397.03;;;3.45;100.00
6694;BME280;3384;42.628;23.380;2023-01-29T12:36:40;94379.75;;;3.38;100.00
6694;BME280;3384;42.628;23.380;2023-01-29T12:39:13;94412.53;;;4.05;100.00
6694;BME280;3384;42.628;23.380;2023-01-29T12:41:45;94404.34;;;3.65;100.00
6694;BME280;3384;42.628;23.380;2023-01-29T12:44:17;94411.41;;;3.23;100.00
6694;BME280;3384;42.628;23.380;2023-01-29T12:46:53;94391.94;;;3.70;100.00
6694;BME280;3384;42.628;23.380;2023-01-29T12:50:02;94405.84;;;3.56;100.00
6694;BME280;3384;42.628;23.380;2023-01-29T12:56:21;94400.78;;;3.86;100.00
6694;BME280;3384;42.628;23.380;2023-01-29T12:58:57;94391.75;;;3.45;100.00
6694;BME280;3384;42.628;23.380;2023-01-29T13:01:31;94393.09;;;3.48;100.00
6694;BME280;3384;42.628;23.380;2023-01-29T13:04:03;94402.72;;;3.64;100.00
6694;BME280;3384;42.628;23.380;2023-01-29T13:06:38;94400.53;;;3.51;100.00
6694;BME280;3384;42.628;23.380;2023-01-29T13:09:11;94389.28;;;3.70;100.00
6694;BME280;3384;42.628;23.380;2023-01-29T13:11:47;94394.25;;;3.67;100.00
6694;BME280;3384;42.628;23.380;2023-01-29T13:14:19;94402.66;;;3.54;100.00
6694;BME280;3384;42.628;23.380;2023-01-29T13:16:51;94392.59;;;3.56;100.00
6694;BME280;3384;42.628;23.380;2023-01-29T13:19:26;94393.81;;;3.75;100.00
6694;BME280;3384;42.628;23.380;2023-01-29T13:25:19;94391.94;;;3.70;100.00
6694;BME280;3384;42.628;23.380;2023-01-29T13:31:13;94385.97;;;3.95;100.00
6694;BME280;3384;42.628;23.380;2023-01-29T13:37:10;94411.56;;;3.79;100.00
6694;BME280;3384;42.628;23.380;2023-01-29T13:39:46;94427.44;;;4.11;100.00
6694;BME280;3384;42.628;23.380;2023-01-29T13:45:43;94409.25;;;3.88;100.00
6694;BME280;3384;42.628;23.380;2023-01-29T13:50:50;94435.91;;;3.40;100.00
6694;BME280;3384;42.628;23.380;2023-01-29T13:53:21;94424.47;;;3.66;100.00
6694;BME280;3384;42.628;23.380;2023-01-29T13:55:48;94421.03;;;3.34;100.00
6694;BME280;3384;42.628;23.380;2023-01-29T14:02:19;94427.09;;;3.97;100.00
6694;BME280;3384;42.628;23.380;2023-01-29T14:04:46;94441.47;;;3.70;100.00
6694;BME280;3384;42.628;23.380;2023-01-29T14:07:48;94427.22;;;3.44;100.00
6694;BME280;3384;42.628;23.380;2023-01-29T14:10:18;94432.94;;;3.63;100.00